sensor_id;sensor_type;location;lat;lon;timestamp;P1;durP1;ratioP1;P2;durP2;ratioP2
18084;SDS011;9169;44.492;11.372;2023-04-06T00:00:36;7.40;;;4.07;;
18084;SDS011;9169;44.492;11.372;2023-04-06T00:03:04;10.67;;;4.27;;
18084;SDS011;9169;44.492;11.372;2023-04-06T00:05:33;7.80;;;4.13;;
18084;SDS011;9169;44.492;11.372;2023-04-06T00:08:03;10.70;;;4.97;;
18084;SDS011;9169;44.492;11.372;2023-04-06T00:10:32;9.97;;;4.23;;
18084;SDS011;9169;44.492;11.372;2023-04-06T00:13:01;8.83;;;4.53;;
18084;SDS011;9169;44.492;11.372;2023-04-06T00:15:30;7.10;;;4.33;;
18084;SDS011;9169;44.492;11.372;2023-04-06T00:17:59;7.50;;;4.00;;
18084;SDS011;9169;44.492;11.372;2023-04-06T00:20:28;8.33;;;4.50;;
18084;SDS011;9169;44.492;11.372;2023-04-06T00:22:57;7.50;;;4.23;;
18084;SDS011;9169;44.492;11.372;2023-04-06T00:25:27;7.80;;;5.00;;
18084;SDS011;9169;44.492;11.372;2023-04-06T00:27:55;5.93;;;3.97;;
18084;SDS011;9169;44.492;11.372;2023-04-06T00:30:25;9.30;;;4.20;;
18084;SDS011;9169;44.492;11.372;2023-04-06T00:32:54;7.23;;;4.50;;
18084;SDS011;9169;44.492;11.372;2023-04-06T00:35:23;6.73;;;3.93;;
18084;SDS011;9169;44.492;11.372;2023-04-06T00:37:51;6.73;;;4.30;;
18084;SDS011;9169;44.492;11.372;2023-04-06T00:40:20;8.03;;;4.80;;
18084;SDS011;9169;44.492;11.372;2023-04-06T00:42:50;4.93;;;3.70;;
18084;SDS011;9169;44.492;11.372;2023-04-06T00:45:19;5.00;;;4.10;;
18084;SDS011;9169;44.492;11.372;2023-04-06T00:47:48;8.63;;;4.40;;
18084;SDS011;9169;44.492;11.372;2023-04-06T00:50:17;5.27;;;3.60;;
18084;SDS011;9169;44.492;11.372;2023-04-06T00:52:46;10.20;;;4.00;;
18084;SDS011;9169;44.492;11.372;2023-04-06T00:55:17;8.43;;;4.50;;
18084;SDS011;9169;44.492;11.372;2023-04-06T00:57:46;9.23;;;4.43;;
18084;SDS011;9169;44.492;11.372;2023-04-06T01:00:17;7.53;;;3.97;;
18084;SDS011;9169;44.492;11.372;2023-04-06T01:02:50;8.13;;;4.20;;
18084;SDS011;9169;44.492;11.372;2023-04-06T01:05:21;8.97;;;4.10;;
18084;SDS011;9169;44.492;11.372;2023-04-06T01:07:54;6.70;;;3.57;;
18084;SDS011;9169;44.492;11.372;2023-04-06T01:10:26;8.80;;;4.23;;
18084;SDS011;9169;44.492;11.372;2023-04-06T01:13:22;8.77;;;4.33;;
18084;SDS011;9169;44.492;11.372;2023-04-06T01:15:55;6.63;;;3.50;;
18084;SDS011;9169;44.492;11.372;2023-04-06T01:18:43;5.93;;;4.07;;
18084;SDS011;9169;44.492;11.372;2023-04-06T01:21:16;7.73;;;4.40;;
18084;SDS011;9169;44.492;11.372;2023-04-06T01:24:06;5.60;;;3.63;;
18084;SDS011;9169;44.492;11.372;2023-04-06T01:26:57;6.57;;;4.23;;
18084;SDS011;9169;44.492;11.372;2023-04-06T01:29:31;5.90;;;3.20;;
18084;SDS011;9169;44.492;11.372;2023-04-06T01:32:03;7.90;;;3.70;;
18084;SDS011;9169;44.492;11.372;2023-04-06T01:34:38;10.07;;;3.57;;
18084;SDS011;9169;44.492;11.372;2023-04-06T01:37:08;5.57;;;3.30;;
18084;SDS011;9169;44.492;11.372;2023-04-06T01:39:38;6.10;;;3.50;;
18084;SDS011;9169;44.492;11.372;2023-04-06T01:42:10;7.10;;;4.17;;
18084;SDS011;9169;44.492;11.372;2023-04-06T01:44:40;6.33;;;3.73;;
18084;SDS011;9169;44.492;11.372;2023-04-06T01:47:12;7.40;;;3.57;;
18084;SDS011;9169;44.492;11.372;2023-04-06T01:49:43;6.80;;;3.90;;
18084;SDS011;9169;44.492;11.372;2023-04-06T01:52:12;6.60;;;3.70;;
18084;SDS011;9169;44.492;11.372;2023-04-06T01:54:50;7.13;;;3.97;;
18084;SDS011;9169;44.492;11.372;2023-04-06T01:57:31;7.20;;;3.60;;
18084;SDS011;9169;44.492;11.372;2023-04-06T02:00:13;6.60;;;4.20;;
18084;SDS011;9169;44.492;11.372;2023-04-06T02:02:49;8.13;;;3.67;;
18084;SDS011;9169;44.492;11.372;2023-04-06T02:05:24;6.37;;;3.97;;
18084;SDS011;9169;44.492;11.372;2023-04-06T02:07:55;6.70;;;4.03;;
18084;SDS011;9169;44.492;11.372;2023-04-06T02:10:34;7.00;;;3.90;;
18084;SDS011;9169;44.492;11.372;2023-04-06T02:13:12;5.87;;;3.97;;
18084;SDS011;9169;44.492;11.372;2023-04-06T02:15:46;6.37;;;3.83;;
18084;SDS011;9169;44.492;11.372;2023-04-06T02:18:15;6.10;;;3.27;;
18084;SDS011;9169;44.492;11.372;2023-04-06T02:20:44;4.90;;;3.37;;
18084;SDS011;9169;44.492;11.372;2023-04-06T02:23:13;5.50;;;3.70;;
18084;SDS011;9169;44.492;11.372;2023-04-06T02:25:43;8.20;;;3.57;;
18084;SDS011;9169;44.492;11.372;2023-04-06T02:28:12;5.13;;;3.40;;
18084;SDS011;9169;44.492;11.372;2023-04-06T02:30:41;7.03;;;3.93;;
18084;SDS011;9169;44.492;11.372;2023-04-06T02:33:10;5.50;;;3.67;;
18084;SDS011;9169;44.492;11.372;2023-04-06T02:35:43;8.23;;;3.83;;
18084;SDS011;9169;44.492;11.372;2023-04-06T02:38:12;6.20;;;3.60;;
18084;SDS011;9169;44.492;11.372;2023-04-06T02:40:41;8.57;;;4.00;;
18084;SDS011;9169;44.492;11.372;2023-04-06T02:43:30;7.40;;;3.10;;
18084;SDS011;9169;44.492;11.372;2023-04-06T02:46:25;5.70;;;3.07;;
18084;SDS011;9169;44.492;11.372;2023-04-06T02:48:53;7.23;;;4.10;;
18084;SDS011;9169;44.492;11.372;2023-04-06T02:51:24;8.30;;;3.50;;
18084;SDS011;9169;44.492;11.372;2023-04-06T02:53:57;7.50;;;4.23;;
18084;SDS011;9169;44.492;11.372;2023-04-06T02:56:26;12.30;;;4.13;;
18084;SDS011;9169;44.492;11.372;2023-04-06T02:58:56;5.40;;;3.50;;
18084;SDS011;9169;44.492;11.372;2023-04-06T03:01:28;7.90;;;4.30;;
18084;SDS011;9169;44.492;11.372;2023-04-06T03:04:01;8.17;;;3.60;;
18084;SDS011;9169;44.492;11.372;2023-04-06T03:06:30;10.53;;;4.33;;
18084;SDS011;9169;44.492;11.372;2023-04-06T03:09:08;8.63;;;4.40;;
18084;SDS011;9169;44.492;11.372;2023-04-06T03:11:40;7.30;;;4.23;;
18084;SDS011;9169;44.492;11.372;2023-04-06T03:14:11;7.97;;;4.30;;
18084;SDS011;9169;44.492;11.372;2023-04-06T03:16:39;7.13;;;4.37;;
18084;SDS011;9169;44.492;11.372;2023-04-06T03:19:08;6.50;;;4.10;;
18084;SDS011;9169;44.492;11.372;2023-04-06T03:21:37;7.83;;;4.00;;
18084;SDS011;9169;44.492;11.372;2023-04-06T03:24:06;6.37;;;3.30;;
18084;SDS011;9169;44.492;11.372;2023-04-06T03:26:35;6.73;;;4.17;;
18084;SDS011;9169;44.492;11.372;2023-04-06T03:29:06;8.47;;;4.40;;
18084;SDS011;9169;44.492;11.372;2023-04-06T03:31:37;6.67;;;4.20;;
18084;SDS011;9169;44.492;11.372;2023-04-06T03:34:14;11.37;;;4.70;;
18084;SDS011;9169;44.492;11.372;2023-04-06T03:36:43;7.47;;;4.30;;
18084;SDS011;9169;44.492;11.372;2023-04-06T03:39:13;10.13;;;5.13;;
18084;SDS011;9169;44.492;11.372;2023-04-06T03:41:43;9.40;;;5.37;;
18084;SDS011;9169;44.492;11.372;2023-04-06T03:44:27;13.43;;;5.47;;
18084;SDS011;9169;44.492;11.372;2023-04-06T03:46:57;7.80;;;4.90;;
18084;SDS011;9169;44.492;11.372;2023-04-06T03:49:26;13.50;;;5.30;;
18084;SDS011;9169;44.492;11.372;2023-04-06T03:51:56;11.43;;;5.43;;
18084;SDS011;9169;44.492;11.372;2023-04-06T03:54:24;10.20;;;5.30;;
18084;SDS011;9169;44.492;11.372;2023-04-06T03:56:53;8.90;;;5.63;;
18084;SDS011;9169;44.492;11.372;2023-04-06T03:59:25;14.03;;;5.97;;
18084;SDS011;9169;44.492;11.372;2023-04-06T04:01:54;12.90;;;6.93;;
18084;SDS011;9169;44.492;11.372;2023-04-06T04:04:24;18.60;;;5.20;;
18084;SDS011;9169;44.492;11.372;2023-04-06T04:06:52;12.00;;;5.50;;
18084;SDS011;9169;44.492;11.372;2023-04-06T04:09:21;11.63;;;6.17;;
18084;SDS011;9169;44.492;11.372;2023-04-06T04:11:50;9.47;;;6.10;;
18084;SDS011;9169;44.492;11.372;2023-04-06T04:14:20;12.00;;;6.10;;
18084;SDS011;9169;44.492;11.372;2023-04-06T04:16:49;11.97;;;6.90;;
18084;SDS011;9169;44.492;11.372;2023-04-06T04:19:18;8.17;;;5.83;;
18084;SDS011;9169;44.492;11.372;2023-04-06T04:21:48;13.97;;;6.87;;
18084;SDS011;9169;44.492;11.372;2023-04-06T04:24:23;17.93;;;6.53;;
18084;SDS011;9169;44.492;11.372;2023-04-06T04:26:51;8.10;;;5.60;;
18084;SDS011;9169;44.492;11.372;2023-04-06T04:29:20;10.23;;;5.80;;
18084;SDS011;9169;44.492;11.372;2023-04-06T04:31:50;7.90;;;5.40;;
18084;SDS011;9169;44.492;11.372;2023-04-06T04:34:19;10.60;;;6.13;;
18084;SDS011;9169;44.492;11.372;2023-04-06T04:36:52;11.07;;;5.30;;
18084;SDS011;9169;44.492;11.372;2023-04-06T04:39:32;9.87;;;6.10;;
18084;SDS011;9169;44.492;11.372;2023-04-06T04:42:04;13.13;;;6.10;;
18084;SDS011;9169;44.492;11.372;2023-04-06T04:44:36;14.80;;;5.60;;
18084;SDS011;9169;44.492;11.372;2023-04-06T04:47:05;10.10;;;5.10;;
18084;SDS011;9169;44.492;11.372;2023-04-06T04:49:42;10.17;;;5.10;;
18084;SDS011;9169;44.492;11.372;2023-04-06T04:52:16;10.10;;;5.90;;
18084;SDS011;9169;44.492;11.372;2023-04-06T04:54:58;11.40;;;4.93;;
18084;SDS011;9169;44.492;11.372;2023-04-06T04:57:30;9.33;;;4.80;;
18084;SDS011;9169;44.492;11.372;2023-04-06T04:59:58;10.13;;;5.40;;
18084;SDS011;9169;44.492;11.372;2023-04-06T05:02:29;12.80;;;4.87;;
18084;SDS011;9169;44.492;11.372;2023-04-06T05:05:10;12.80;;;5.43;;
18084;SDS011;9169;44.492;11.372;2023-04-06T05:07:41;7.27;;;4.70;;
18084;SDS011;9169;44.492;11.372;2023-04-06T05:10:18;13.53;;;5.00;;
18084;SDS011;9169;44.492;11.372;2023-04-06T05:12:57;10.27;;;4.53;;
18084;SDS011;9169;44.492;11.372;2023-04-06T05:15:26;8.60;;;4.80;;
18084;SDS011;9169;44.492;11.372;2023-04-06T05:18:02;10.37;;;4.60;;
18084;SDS011;9169;44.492;11.372;2023-04-06T05:20:34;8.67;;;4.47;;
18084;SDS011;9169;44.492;11.372;2023-04-06T05:23:04;7.50;;;4.23;;
18084;SDS011;9169;44.492;11.372;2023-04-06T05:25:33;8.23;;;4.40;;
18084;SDS011;9169;44.492;11.372;2023-04-06T05:28:12;7.47;;;4.43;;
18084;SDS011;9169;44.492;11.372;2023-04-06T05:30:43;8.93;;;4.57;;
18084;SDS011;9169;44.492;11.372;2023-04-06T05:33:14;7.80;;;4.10;;
18084;SDS011;9169;44.492;11.372;2023-04-06T05:36:03;9.93;;;4.73;;
18084;SDS011;9169;44.492;11.372;2023-04-06T05:38:39;13.03;;;3.97;;
18084;SDS011;9169;44.492;11.372;2023-04-06T05:41:17;6.30;;;4.63;;
18084;SDS011;9169;44.492;11.372;2023-04-06T05:43:46;10.70;;;3.93;;
18084;SDS011;9169;44.492;11.372;2023-04-06T05:46:15;7.50;;;4.53;;
18084;SDS011;9169;44.492;11.372;2023-04-06T05:48:44;7.33;;;4.40;;
18084;SDS011;9169;44.492;11.372;2023-04-06T05:51:14;4.87;;;3.70;;
18084;SDS011;9169;44.492;11.372;2023-04-06T05:53:48;7.30;;;4.00;;
18084;SDS011;9169;44.492;11.372;2023-04-06T05:56:17;9.43;;;4.13;;
18084;SDS011;9169;44.492;11.372;2023-04-06T05:58:45;6.97;;;3.90;;
18084;SDS011;9169;44.492;11.372;2023-04-06T06:01:20;7.13;;;3.80;;
18084;SDS011;9169;44.492;11.372;2023-04-06T06:03:49;7.53;;;3.97;;
18084;SDS011;9169;44.492;11.372;2023-04-06T06:06:18;6.47;;;4.37;;
18084;SDS011;9169;44.492;11.372;2023-04-06T06:09:04;4.97;;;3.40;;
18084;SDS011;9169;44.492;11.372;2023-04-06T06:11:38;6.33;;;4.20;;
18084;SDS011;9169;44.492;11.372;2023-04-06T06:14:09;18.23;;;3.70;;
18084;SDS011;9169;44.492;11.372;2023-04-06T06:16:39;8.63;;;3.87;;
18084;SDS011;9169;44.492;11.372;2023-04-06T06:19:11;6.30;;;3.83;;
18084;SDS011;9169;44.492;11.372;2023-04-06T06:21:40;8.23;;;3.87;;
18084;SDS011;9169;44.492;11.372;2023-04-06T06:24:10;11.27;;;4.10;;
18084;SDS011;9169;44.492;11.372;2023-04-06T06:26:39;9.27;;;4.03;;
18084;SDS011;9169;44.492;11.372;2023-04-06T06:29:10;6.60;;;4.00;;
18084;SDS011;9169;44.492;11.372;2023-04-06T06:31:39;5.90;;;3.67;;
18084;SDS011;9169;44.492;11.372;2023-04-06T06:34:08;6.30;;;4.20;;
18084;SDS011;9169;44.492;11.372;2023-04-06T06:36:37;10.50;;;4.70;;
18084;SDS011;9169;44.492;11.372;2023-04-06T06:39:13;7.97;;;3.70;;
18084;SDS011;9169;44.492;11.372;2023-04-06T06:41:42;6.80;;;4.13;;
18084;SDS011;9169;44.492;11.372;2023-04-06T06:44:11;15.00;;;4.77;;
18084;SDS011;9169;44.492;11.372;2023-04-06T06:46:39;7.73;;;4.23;;
18084;SDS011;9169;44.492;11.372;2023-04-06T06:49:08;10.10;;;4.23;;
18084;SDS011;9169;44.492;11.372;2023-04-06T06:51:38;20.27;;;11.00;;
18084;SDS011;9169;44.492;11.372;2023-04-06T06:54:06;9.37;;;5.60;;
18084;SDS011;9169;44.492;11.372;2023-04-06T06:56:36;12.77;;;5.73;;
18084;SDS011;9169;44.492;11.372;2023-04-06T06:59:05;9.73;;;6.00;;
18084;SDS011;9169;44.492;11.372;2023-04-06T07:01:35;15.33;;;5.20;;
18084;SDS011;9169;44.492;11.372;2023-04-06T07:04:04;22.53;;;5.77;;
18084;SDS011;9169;44.492;11.372;2023-04-06T07:06:35;11.27;;;6.23;;
18084;SDS011;9169;44.492;11.372;2023-04-06T07:09:03;11.77;;;6.17;;
18084;SDS011;9169;44.492;11.372;2023-04-06T07:11:32;12.00;;;6.40;;
18084;SDS011;9169;44.492;11.372;2023-04-06T07:14:02;12.80;;;6.63;;
18084;SDS011;9169;44.492;11.372;2023-04-06T07:16:31;10.63;;;5.43;;
18084;SDS011;9169;44.492;11.372;2023-04-06T07:19:00;10.30;;;6.03;;
18084;SDS011;9169;44.492;11.372;2023-04-06T07:21:29;17.03;;;6.50;;
18084;SDS011;9169;44.492;11.372;2023-04-06T07:23:58;11.67;;;6.37;;
18084;SDS011;9169;44.492;11.372;2023-04-06T07:26:27;11.13;;;5.80;;
18084;SDS011;9169;44.492;11.372;2023-04-06T07:28:56;10.10;;;5.77;;
18084;SDS011;9169;44.492;11.372;2023-04-06T07:31:26;10.27;;;6.03;;
18084;SDS011;9169;44.492;11.372;2023-04-06T07:33:56;17.93;;;6.97;;
18084;SDS011;9169;44.492;11.372;2023-04-06T07:36:24;7.90;;;4.80;;
18084;SDS011;9169;44.492;11.372;2023-04-06T07:38:53;9.83;;;6.10;;
18084;SDS011;9169;44.492;11.372;2023-04-06T07:41:22;9.80;;;6.00;;
18084;SDS011;9169;44.492;11.372;2023-04-06T07:43:52;16.93;;;5.90;;
18084;SDS011;9169;44.492;11.372;2023-04-06T07:46:21;11.10;;;5.87;;
18084;SDS011;9169;44.492;11.372;2023-04-06T07:48:51;15.10;;;5.63;;
18084;SDS011;9169;44.492;11.372;2023-04-06T07:51:20;14.10;;;5.90;;
18084;SDS011;9169;44.492;11.372;2023-04-06T07:53:49;10.00;;;6.10;;
18084;SDS011;9169;44.492;11.372;2023-04-06T07:56:18;9.83;;;5.47;;
18084;SDS011;9169;44.492;11.372;2023-04-06T07:58:47;6.90;;;4.50;;
18084;SDS011;9169;44.492;11.372;2023-04-06T08:01:17;13.20;;;5.90;;
18084;SDS011;9169;44.492;11.372;2023-04-06T08:03:45;7.90;;;5.03;;
18084;SDS011;9169;44.492;11.372;2023-04-06T08:06:16;9.03;;;5.50;;
18084;SDS011;9169;44.492;11.372;2023-04-06T08:08:44;10.73;;;5.70;;
18084;SDS011;9169;44.492;11.372;2023-04-06T08:11:13;9.60;;;4.70;;
18084;SDS011;9169;44.492;11.372;2023-04-06T08:13:41;10.30;;;4.63;;
18084;SDS011;9169;44.492;11.372;2023-04-06T08:16:10;7.60;;;4.47;;
18084;SDS011;9169;44.492;11.372;2023-04-06T08:18:39;8.37;;;5.00;;
18084;SDS011;9169;44.492;11.372;2023-04-06T08:21:09;6.00;;;4.43;;
18084;SDS011;9169;44.492;11.372;2023-04-06T08:23:39;12.20;;;6.10;;
18084;SDS011;9169;44.492;11.372;2023-04-06T08:26:07;7.70;;;4.07;;
18084;SDS011;9169;44.492;11.372;2023-04-06T08:28:36;5.90;;;4.17;;
18084;SDS011;9169;44.492;11.372;2023-04-06T08:31:05;9.90;;;4.20;;
18084;SDS011;9169;44.492;11.372;2023-04-06T08:33:34;8.10;;;4.23;;
18084;SDS011;9169;44.492;11.372;2023-04-06T08:36:09;6.70;;;4.40;;
18084;SDS011;9169;44.492;11.372;2023-04-06T08:38:41;9.93;;;4.97;;
18084;SDS011;9169;44.492;11.372;2023-04-06T08:41:11;5.63;;;3.60;;
18084;SDS011;9169;44.492;11.372;2023-04-06T08:43:42;5.73;;;3.30;;
18084;SDS011;9169;44.492;11.372;2023-04-06T08:46:11;12.43;;;4.00;;
18084;SDS011;9169;44.492;11.372;2023-04-06T08:48:41;7.00;;;4.13;;
18084;SDS011;9169;44.492;11.372;2023-04-06T08:51:11;6.47;;;3.97;;
18084;SDS011;9169;44.492;11.372;2023-04-06T08:53:41;19.10;;;4.90;;
18084;SDS011;9169;44.492;11.372;2023-04-06T08:56:10;6.80;;;4.30;;
18084;SDS011;9169;44.492;11.372;2023-04-06T08:58:39;7.57;;;5.07;;
18084;SDS011;9169;44.492;11.372;2023-04-06T09:01:09;11.80;;;4.13;;
18084;SDS011;9169;44.492;11.372;2023-04-06T09:03:42;5.50;;;3.30;;
18084;SDS011;9169;44.492;11.372;2023-04-06T09:06:11;8.30;;;3.97;;
18084;SDS011;9169;44.492;11.372;2023-04-06T09:08:43;6.57;;;3.83;;
18084;SDS011;9169;44.492;11.372;2023-04-06T09:11:11;5.90;;;3.37;;
18084;SDS011;9169;44.492;11.372;2023-04-06T09:13:45;7.10;;;3.90;;
18084;SDS011;9169;44.492;11.372;2023-04-06T09:16:15;8.93;;;3.57;;
18084;SDS011;9169;44.492;11.372;2023-04-06T09:18:44;5.60;;;3.70;;
18084;SDS011;9169;44.492;11.372;2023-04-06T09:21:13;6.43;;;3.90;;
18084;SDS011;9169;44.492;11.372;2023-04-06T09:23:45;5.07;;;3.00;;
18084;SDS011;9169;44.492;11.372;2023-04-06T09:26:17;8.47;;;4.47;;
18084;SDS011;9169;44.492;11.372;2023-04-06T09:28:47;10.63;;;4.23;;
18084;SDS011;9169;44.492;11.372;2023-04-06T09:31:21;7.00;;;3.67;;
18084;SDS011;9169;44.492;11.372;2023-04-06T09:33:50;7.40;;;4.03;;
18084;SDS011;9169;44.492;11.372;2023-04-06T09:36:19;6.67;;;4.10;;
18084;SDS011;9169;44.492;11.372;2023-04-06T09:38:59;8.60;;;4.50;;
18084;SDS011;9169;44.492;11.372;2023-04-06T09:41:29;7.17;;;4.57;;
18084;SDS011;9169;44.492;11.372;2023-04-06T09:44:02;8.90;;;4.73;;
18084;SDS011;9169;44.492;11.372;2023-04-06T09:46:33;10.23;;;4.90;;
18084;SDS011;9169;44.492;11.372;2023-04-06T09:49:09;6.63;;;4.50;;
18084;SDS011;9169;44.492;11.372;2023-04-06T09:51:39;8.83;;;4.70;;
18084;SDS011;9169;44.492;11.372;2023-04-06T09:54:10;6.77;;;4.50;;
18084;SDS011;9169;44.492;11.372;2023-04-06T09:56:45;11.50;;;5.20;;
18084;SDS011;9169;44.492;11.372;2023-04-06T09:59:18;7.60;;;4.97;;
18084;SDS011;9169;44.492;11.372;2023-04-06T10:01:53;6.20;;;4.27;;
18084;SDS011;9169;44.492;11.372;2023-04-06T10:04:29;7.43;;;4.60;;
18084;SDS011;9169;44.492;11.372;2023-04-06T10:07:05;8.67;;;4.73;;
18084;SDS011;9169;44.492;11.372;2023-04-06T10:09:37;7.20;;;4.43;;
18084;SDS011;9169;44.492;11.372;2023-04-06T10:12:07;6.53;;;4.73;;
18084;SDS011;9169;44.492;11.372;2023-04-06T10:14:36;5.90;;;4.40;;
18084;SDS011;9169;44.492;11.372;2023-04-06T10:17:04;6.73;;;4.50;;
18084;SDS011;9169;44.492;11.372;2023-04-06T10:19:38;8.30;;;5.33;;
18084;SDS011;9169;44.492;11.372;2023-04-06T10:22:12;9.13;;;4.93;;
18084;SDS011;9169;44.492;11.372;2023-04-06T10:24:50;6.53;;;5.27;;
18084;SDS011;9169;44.492;11.372;2023-04-06T10:27:27;6.03;;;4.80;;
18084;SDS011;9169;44.492;11.372;2023-04-06T10:30:00;5.33;;;4.10;;
18084;SDS011;9169;44.492;11.372;2023-04-06T10:32:37;7.63;;;4.90;;
18084;SDS011;9169;44.492;11.372;2023-04-06T10:35:10;7.77;;;5.10;;
18084;SDS011;9169;44.492;11.372;2023-04-06T10:37:47;7.03;;;5.23;;
18084;SDS011;9169;44.492;11.372;2023-04-06T10:40:23;5.47;;;4.27;;
18084;SDS011;9169;44.492;11.372;2023-04-06T10:42:53;6.23;;;4.70;;
18084;SDS011;9169;44.492;11.372;2023-04-06T10:45:24;6.97;;;4.83;;
18084;SDS011;9169;44.492;11.372;2023-04-06T10:47:56;8.60;;;5.23;;
18084;SDS011;9169;44.492;11.372;2023-04-06T10:50:25;6.23;;;5.03;;
18084;SDS011;9169;44.492;11.372;2023-04-06T10:53:00;6.83;;;5.10;;
18084;SDS011;9169;44.492;11.372;2023-04-06T10:55:31;5.50;;;4.60;;
18084;SDS011;9169;44.492;11.372;2023-04-06T10:58:05;6.53;;;5.07;;
18084;SDS011;9169;44.492;11.372;2023-04-06T11:00:34;7.40;;;5.37;;
18084;SDS011;9169;44.492;11.372;2023-04-06T11:03:13;7.57;;;5.47;;
18084;SDS011;9169;44.492;11.372;2023-04-06T11:05:43;8.70;;;5.50;;
18084;SDS011;9169;44.492;11.372;2023-04-06T11:08:21;8.47;;;5.27;;
18084;SDS011;9169;44.492;11.372;2023-04-06T11:11:03;9.37;;;6.07;;
18084;SDS011;9169;44.492;11.372;2023-04-06T11:13:36;10.93;;;5.50;;
18084;SDS011;9169;44.492;11.372;2023-04-06T11:16:06;9.90;;;5.27;;
18084;SDS011;9169;44.492;11.372;2023-04-06T11:18:46;10.03;;;5.43;;
18084;SDS011;9169;44.492;11.372;2023-04-06T11:21:18;7.70;;;5.50;;
18084;SDS011;9169;44.492;11.372;2023-04-06T11:23:48;8.63;;;5.17;;
18084;SDS011;9169;44.492;11.372;2023-04-06T11:26:18;9.30;;;5.77;;
18084;SDS011;9169;44.492;11.372;2023-04-06T11:28:47;7.90;;;5.93;;
18084;SDS011;9169;44.492;11.372;2023-04-06T11:31:16;11.03;;;5.77;;
18084;SDS011;9169;44.492;11.372;2023-04-06T11:33:44;9.53;;;6.20;;
18084;SDS011;9169;44.492;11.372;2023-04-06T11:36:13;10.60;;;5.53;;
18084;SDS011;9169;44.492;11.372;2023-04-06T11:38:42;6.43;;;5.30;;
18084;SDS011;9169;44.492;11.372;2023-04-06T11:41:11;12.80;;;5.93;;
18084;SDS011;9169;44.492;11.372;2023-04-06T11:43:46;8.10;;;5.47;;
18084;SDS011;9169;44.492;11.372;2023-04-06T11:46:17;13.03;;;5.63;;
18084;SDS011;9169;44.492;11.372;2023-04-06T11:48:46;7.33;;;5.90;;
18084;SDS011;9169;44.492;11.372;2023-04-06T11:51:21;9.73;;;5.77;;
18084;SDS011;9169;44.492;11.372;2023-04-06T11:53:51;7.40;;;4.80;;
18084;SDS011;9169;44.492;11.372;2023-04-06T11:56:26;7.60;;;5.50;;
18084;SDS011;9169;44.492;11.372;2023-04-06T11:58:57;6.80;;;5.20;;
18084;SDS011;9169;44.492;11.372;2023-04-06T12:01:26;10.57;;;5.60;;
18084;SDS011;9169;44.492;11.372;2023-04-06T12:03:55;7.30;;;5.50;;
18084;SDS011;9169;44.492;11.372;2023-04-06T12:06:25;8.60;;;6.07;;
18084;SDS011;9169;44.492;11.372;2023-04-06T12:08:53;8.13;;;6.00;;
18084;SDS011;9169;44.492;11.372;2023-04-06T12:11:22;6.67;;;5.20;;
18084;SDS011;9169;44.492;11.372;2023-04-06T12:13:51;10.00;;;5.67;;
18084;SDS011;9169;44.492;11.372;2023-04-06T12:16:21;7.67;;;6.00;;
18084;SDS011;9169;44.492;11.372;2023-04-06T12:18:50;9.13;;;6.40;;
18084;SDS011;9169;44.492;11.372;2023-04-06T12:21:19;7.47;;;5.73;;
18084;SDS011;9169;44.492;11.372;2023-04-06T12:23:48;7.00;;;5.63;;
18084;SDS011;9169;44.492;11.372;2023-04-06T12:26:16;8.80;;;5.90;;
18084;SDS011;9169;44.492;11.372;2023-04-06T12:28:45;8.07;;;4.90;;
18084;SDS011;9169;44.492;11.372;2023-04-06T12:31:14;8.90;;;6.20;;
18084;SDS011;9169;44.492;11.372;2023-04-06T12:33:45;8.33;;;5.80;;
18084;SDS011;9169;44.492;11.372;2023-04-06T12:36:15;8.10;;;5.70;;
18084;SDS011;9169;44.492;11.372;2023-04-06T12:38:46;11.23;;;6.00;;
18084;SDS011;9169;44.492;11.372;2023-04-06T12:41:16;12.90;;;6.07;;
18084;SDS011;9169;44.492;11.372;2023-04-06T12:43:45;7.60;;;6.40;;
18084;SDS011;9169;44.492;11.372;2023-04-06T12:46:14;9.60;;;6.70;;
18084;SDS011;9169;44.492;11.372;2023-04-06T12:48:42;6.90;;;5.93;;
18084;SDS011;9169;44.492;11.372;2023-04-06T12:51:12;8.47;;;6.10;;
18084;SDS011;9169;44.492;11.372;2023-04-06T12:53:41;8.13;;;6.63;;
18084;SDS011;9169;44.492;11.372;2023-04-06T12:56:11;9.73;;;6.67;;
18084;SDS011;9169;44.492;11.372;2023-04-06T12:58:40;11.33;;;6.20;;
18084;SDS011;9169;44.492;11.372;2023-04-06T13:01:09;8.37;;;5.77;;
18084;SDS011;9169;44.492;11.372;2023-04-06T13:03:39;8.47;;;6.40;;
18084;SDS011;9169;44.492;11.372;2023-04-06T13:06:10;12.87;;;6.87;;
18084;SDS011;9169;44.492;11.372;2023-04-06T13:08:39;8.17;;;5.77;;
18084;SDS011;9169;44.492;11.372;2023-04-06T13:11:09;9.23;;;6.83;;
18084;SDS011;9169;44.492;11.372;2023-04-06T13:13:38;9.00;;;6.20;;
18084;SDS011;9169;44.492;11.372;2023-04-06T13:16:08;10.83;;;6.53;;
18084;SDS011;9169;44.492;11.372;2023-04-06T13:18:37;9.30;;;6.27;;
18084;SDS011;9169;44.492;11.372;2023-04-06T13:21:06;7.47;;;6.10;;
18084;SDS011;9169;44.492;11.372;2023-04-06T13:23:36;11.13;;;6.40;;
18084;SDS011;9169;44.492;11.372;2023-04-06T13:26:06;7.63;;;6.33;;
18084;SDS011;9169;44.492;11.372;2023-04-06T13:28:35;8.13;;;5.50;;
18084;SDS011;9169;44.492;11.372;2023-04-06T13:31:05;8.73;;;5.80;;
18084;SDS011;9169;44.492;11.372;2023-04-06T13:33:35;7.37;;;6.27;;
18084;SDS011;9169;44.492;11.372;2023-04-06T13:36:04;9.20;;;5.90;;
18084;SDS011;9169;44.492;11.372;2023-04-06T13:38:39;9.40;;;5.73;;
18084;SDS011;9169;44.492;11.372;2023-04-06T13:41:08;6.80;;;5.97;;
18084;SDS011;9169;44.492;11.372;2023-04-06T13:43:37;8.70;;;5.70;;
18084;SDS011;9169;44.492;11.372;2023-04-06T13:46:06;10.00;;;6.30;;
18084;SDS011;9169;44.492;11.372;2023-04-06T13:48:34;11.70;;;6.30;;
18084;SDS011;9169;44.492;11.372;2023-04-06T13:51:09;8.33;;;6.10;;
18084;SDS011;9169;44.492;11.372;2023-04-06T13:53:39;7.23;;;5.90;;
18084;SDS011;9169;44.492;11.372;2023-04-06T13:56:08;9.23;;;6.50;;
18084;SDS011;9169;44.492;11.372;2023-04-06T13:58:37;8.43;;;6.23;;
18084;SDS011;9169;44.492;11.372;2023-04-06T14:01:06;7.07;;;6.10;;
18084;SDS011;9169;44.492;11.372;2023-04-06T14:03:36;8.40;;;6.20;;
18084;SDS011;9169;44.492;11.372;2023-04-06T14:06:12;7.93;;;6.90;;
18084;SDS011;9169;44.492;11.372;2023-04-06T14:08:49;8.00;;;6.30;;
18084;SDS011;9169;44.492;11.372;2023-04-06T14:11:18;21.53;;;12.30;;
18084;SDS011;9169;44.492;11.372;2023-04-06T14:13:47;8.20;;;6.20;;
18084;SDS011;9169;44.492;11.372;2023-04-06T14:16:15;9.63;;;6.60;;
18084;SDS011;9169;44.492;11.372;2023-04-06T14:18:47;10.33;;;8.10;;
18084;SDS011;9169;44.492;11.372;2023-04-06T14:21:16;8.97;;;6.00;;
18084;SDS011;9169;44.492;11.372;2023-04-06T14:23:49;10.30;;;7.33;;
18084;SDS011;9169;44.492;11.372;2023-04-06T14:26:19;11.23;;;7.93;;
18084;SDS011;9169;44.492;11.372;2023-04-06T14:28:47;7.63;;;6.20;;
18084;SDS011;9169;44.492;11.372;2023-04-06T14:31:17;7.07;;;5.60;;
18084;SDS011;9169;44.492;11.372;2023-04-06T14:33:45;9.70;;;6.00;;
18084;SDS011;9169;44.492;11.372;2023-04-06T14:36:14;10.53;;;6.60;;
18084;SDS011;9169;44.492;11.372;2023-04-06T14:38:43;10.83;;;6.30;;
18084;SDS011;9169;44.492;11.372;2023-04-06T14:41:17;11.43;;;8.53;;
18084;SDS011;9169;44.492;11.372;2023-04-06T14:43:47;7.60;;;5.73;;
18084;SDS011;9169;44.492;11.372;2023-04-06T14:46:15;12.93;;;8.93;;
18084;SDS011;9169;44.492;11.372;2023-04-06T14:48:44;9.13;;;6.30;;
18084;SDS011;9169;44.492;11.372;2023-04-06T14:51:13;11.97;;;9.53;;
18084;SDS011;9169;44.492;11.372;2023-04-06T14:53:43;7.80;;;6.17;;
18084;SDS011;9169;44.492;11.372;2023-04-06T14:56:12;11.30;;;6.20;;
18084;SDS011;9169;44.492;11.372;2023-04-06T14:58:42;7.70;;;5.80;;
18084;SDS011;9169;44.492;11.372;2023-04-06T15:01:20;10.80;;;8.00;;
18084;SDS011;9169;44.492;11.372;2023-04-06T15:03:49;11.53;;;7.20;;
18084;SDS011;9169;44.492;11.372;2023-04-06T15:06:18;10.40;;;6.20;;